WEATHER DATA

YESTERDAY
Time Temp. Dewp. Hum. Wind dir Wind speed Wind gust Bar. 1h Prec. 24h Prec.
00:05 4.4 1.8 83 260 2.5 4.7 1003.5 0.0000 0.0000
00:14 4.4 1.8 83 264 3.3 6.1 1003.5 0.0000 0.0000
00:24 4.4 1.9 84 263 2.8 5.6 1003.7 0.0000 0.0000
00:34 4.5 1.9 83 259 3.6 6.4 1003.5 0.0000 0.0000
00:45 4.5 1.9 83 260 3.6 6.1 1003.5 0.0000 0.0000
00:52 4.5 1.9 83 270 3.9 10 1003.4 0.0000 0.0000
01:03 4.5 1.9 83 261 3.6 7.8 1003.4 0.0000 0.0000
01:13 4.5 1.7 82 270 3.3 6.4 1003.6 0.0000 0.0000
01:22 4.4 1.6 82 270 2.5 5.6 1003.8 0.0000 0.0000
01:33 4.3 1.7 83 264 2.8 5.6 1003.7 0.0000 0.0000
01:43 4.3 1.7 83 261 2.5 5.6 1003.5 0.0000 0.0000
01:53 4.2 1.6 83 263 3.6 6.4 1003.4 0.0000 0.0000
02:02 4.2 1.6 83 262 2.8 5.8 1003.4 0.0000 0.0000
02:13 4 1.4 83 261 2.5 5 1003.6 0.0000 0.0000
02:23 3.8 1.3 84 261 2.8 4.7 1003.6 0.0000 0.0000
02:33 3.7 1.4 85 261 2.5 5 1003.7 0.0000 0.0000
02:44 3.7 1.4 85 265 2.8 4.4 1003.8 0.0000 0.0000
02:53 3.7 1.4 85 263 2.5 5 1003.7 0.0000 0.0000
03:03 3.6 1.3 85 260 2.5 4.7 1003.8 0.0000 0.0000
03:13 3.5 1.2 85 256 1.9 4.4 1003.7 0.0000 0.0000
03:24 3.3 1.2 86 256 2.5 5.6 1003.5 0.0000 0.0000
03:34 3.3 1.2 86 260 2.8 5.6 1003.4 0.0000 0.0000
03:43 3.3 1.2 86 261 2.5 5 1003.6 0.0000 0.0000
03:54 3.1 1 86 259 3.3 5.8 1003.4 0.0000 0.0000
04:04 3.1 1.1 87 258 2.8 6.9 1003.5 0.0000 0.0000
04:14 3 1.1 87 257 2.5 4.7 1003.4 0.0000 0.0000
04:24 2.8 0.9 87 253 2.2 3.6 1003.4 0.0000 0.0000
04:35 2.7 0.8 87 242 1.4 3.9 1003.6 0.0000 0.0000
04:45 2.4 0.5 87 244 0.8 1.9 1003.6 0.0000 0.0000
04:55 2.2 0.4 88 240 0.8 2.5 1003.6 0.0000 0.0000
05:05 2 0.2 88 270 0.3 0.6 1003.5 0.0000 0.0000
05:16 1.9 0.3 89 243 0.6 1.7 1003.5 0.0000 0.0000
05:26 1.7 0.1 89 270 0.3 0.8 1003.5 0.0000 0.0000
05:35 1.6 0 89 270 0.3 0.6 1003.5 0.0000 0.0000
05:46 1.5 0 90 270 0.3 1.4 1003.5 0.0000 0.0000
05:56 1.6 0.3 91 252 0.6 0.8 1003.6 0.0000 0.0000
06:06 1.6 0.3 91 270 0.6 1.7 1003.4 0.0000 0.0000
06:15 1.6 0.3 91 254 0.8 2.2 1003.4 0.0000 0.0000
06:26 1.7 0.5 92 247 1.4 3.3 1003.4 0.0000 0.0000
06:36 1.8 0.8 93 256 1.7 3.3 1003.4 0.0000 0.0000
06:46 2 1 93 251 1.7 2.8 1003.5 0.0000 0.0000
06:56 2.2 1.2 93 254 1.4 2.5 1003.6 0.0000 0.0000
07:06 2.4 1.4 93 257 1.9 3.3 1003.5 0.0000 0.0000
07:16 2.5 1.5 93 255 1.7 4.4 1003.5 0.0000 0.0000
07:26 2.4 1.4 93 247 0.6 2.2 1003.7 0.0000 0.0000
07:37 2.3 1.1 92 270 0.3 0.8 1003.8 0.0000 0.0000
07:47 2.1 0.9 92 168 0.3 0.6 1004 0.0000 0.0000
07:57 2 0.8 92 0 0.3 1004.1 0.0000 0.0000
08:07 1.8 0.8 93 156 0.3 0.6 1004 0.0000 0.0000
08:17 1.7 0.7 93 233 0.3 0.6 1004 0.0000 0.0000
08:27 1.7 0.7 93 270 0.3 0.6 1004 0.0000 0.0000
08:37 1.6 0.7 94 315 0.3 0.6 1004 0.0000 0.0000
08:47 1.6 0.7 94 307 0.3 0.8 1004.2 0.0000 0.0000
08:58 1.6 0.7 94 0 0.3 1004.1 0.0000 0.0000
09:07 1.7 1 95 308 0.3 0.8 1004 0.0000 0.0000
09:17 1.9 1.3 96 270 0.3 0.6 1004.1 0.0000 0.0000
09:28 2.2 1.6 96 270 0.3 0.8 1004 0.0000 0.0000
09:38 2.4 1.8 96 270 0.3 0.6 1004 0.0000 0.0000
09:47 2.5 1.9 96 270 0.3 0.6 1004 0.0000 0.0000
09:58 2.7 2.1 96 270 0.3 0.8 1004 0.0000 0.0000
10:08 3 2.4 96 270 0.3 1.4 1003.9 0.0000 0.0000
10:18 3.2 2.5 95 270 0.8 1.9 1004.3 0.0000 0.0000
10:28 3.6 3 96 270 1.7 2.2 1004.3 0.0000 0.0000
10:38 4.1 3.4 95 270 1.4 2.8 1004.3 0.0000 0.0000
10:48 4.4 3.5 94 270 1.7 2.8 1004.2 0.0000 0.0000
10:58 4.5 3.3 92 270 1.7 2.8 1004.1 0.0000 0.0000
11:09 4.6 3.4 92 270 2.2 3.9 1004.1 0.0000 0.0000
11:19 5 3.5 90 270 2.8 4.4 1004.2 0.0000 0.0000
11:29 5.1 3.4 89 270 1.9 3.6 1004.5 0.0000 0.0000
11:38 5.4 3.4 87 270 2.5 4.4 1004.3 0.0000 0.0000
11:49 5.5 3.2 85 273 2.8 4.4 1004.3 0.0000 0.0000
11:59 5.6 3.1 84 270 2.8 4.4 1004.4 0.0000 0.0000
12:09 5.6 2.9 83 270 2.5 4.4 1004.5 0.0000 0.0000
12:19 5.5 2.8 83 270 3.3 5.6 1004.4 0.0000 0.0000
12:30 5.5 2.8 83 270 2.8 4.4 1004.4 0.0000 0.0000
12:40 5.4 2.9 84 278 1.7 3.6 1004.6 0.0000 0.0000
12:50 5.3 2.8 84 274 2.8 4.4 1004.7 0.0000 0.0000
13:00 5.3 3 85 270 1.4 2.8 1004.8 0.0000 0.0000
13:10 5.2 2.6 83 282 1.9 5 1004.7 0.0000 0.0000
13:20 5.1 2.3 82 288 1.9 5 1004.9 0.0000 0.0000
13:30 5.2 2.7 84 299 1.7 4.4 1005.3 0.0000 0.0000
13:41 5.1 3 86 275 2.2 3.6 1005.3 0.0000 0.0000
13:50 5.1 3 86 273 3.3 4.7 1005.2 0.0000 0.0000
14:00 5.1 3 86 273 2.8 4.2 1005.2 0.0000 0.0000
14:10 5.2 2.9 85 280 1.9 3.9 1005.5 0.0000 0.0000
14:31 5.1 2.6 84 289 1.9 3.9 1005.6 0.0000 0.0000
14:41 5 2.4 83 288 1.7 3.6 1005.6 0.0000 0.0000
15:01 5.4 2.4 81 296 0.8 3.9 1005.7 0.0000 0.0000
15:11 5.4 2.1 79 286 1.4 3.6 1005.8 0.0000 0.0000
15:21 5.4 2.1 79 293 1.9 3.6 1005.9 0.0000 0.0000
15:32 5.5 2.2 79 295 0.8 2.2 1006.1 0.0000 0.0000
15:41 5.5 2.2 79 284 1.7 3.9 1006.2 0.0000 0.0000
15:51 5.5 2 78 287 1.7 3.6 1006.3 0.0000 0.0000
16:01 5.5 2 78 277 2.8 4.7 1006.5 0.0000 0.0000
16:12 5.5 1.8 77 275 3.3 5.6 1006.7 0.0000 0.0000
16:22 5.3 1.8 78 279 2.2 3.9 1006.8 0.0000 0.0000
16:32 5.1 1.6 78 283 2.2 3.6 1007.1 0.0000 0.0000
16:43 4.9 1.6 79 281 2.2 3.9 1007.2 0.0000 0.0000
16:53 4.7 1.5 80 281 1.9 3.3 1007.3 0.0000 0.0000
17:02 4.5 1.4 80 276 1.7 2.8 1007.3 0.0000 0.0000
17:12 4.2 1.2 81 276 1.4 1.9 1007.7 0.0000 0.0000
17:23 3.8 0.8 81 270 1.4 1.9 1007.6 0.0000 0.0000
17:33 3.4 0.6 82 270 0.8 1.4 1007.7 0.0000 0.0000
17:49 2.9 0.3 83 270 0.6 1.4 1008.1 0.0000 0.0000
17:59 2.7 0.3 84 270 0.6 1.4 1008.2 0.0000 0.0000
18:09 2.5 0.2 85 270 0.6 1.4 1008.5 0.0000 0.0000
18:19 2.3 0 85 270 0.6 1.4 1008.8 0.0000 0.0000
18:29 2.2 0.1 86 270 0.8 1.7 1008.8 0.0000 0.0000
18:40 2.1 0.2 87 284 1.4 1.9 1009.1 0.0000 0.0000
18:50 2.2 0.4 88 270 0.8 1.9 1009.3 0.0000 0.0000
19:00 2.2 0.4 88 270 0.8 1.7 1009.3 0.0000 0.0000
19:10 2 0.2 88 270 0.8 1.4 1009.5 0.0000 0.0000
19:20 1.8 0 88 270 0.6 1.4 1009.6 0.0000 0.0000
19:30 1.7 0.1 89 270 0.6 1.4 1009.7 0.0000 0.0000
19:40 1.5 -0.1 89 270 0.6 0.8 1010 0.0000 0.0000
19:51 1.4 -0.2 89 270 0.6 0.8 1010.1 0.0000 0.0000
20:01 1.2 -0.4 89 270 0.3 0.8 1010.3 0.0000 0.0000
20:10 1.1 -0.3 90 270 0.6 0.8 1010.2 0.0000 0.0000
20:31 0.6 -0.7 90 233 0.3 0.8 1010.5 0.0000 0.0000
20:41 0.3 -1 90 0 0.3 1010.6 0.0000 0.0000
21:01 -0.3 -1.6 90 270 0.3 0.6 1010.9 0.0000 0.0000
21:11 -0.6 -1.7 91 0 0.3 1010.9 0.0000 0.0000
21:21 -0.7 -1.8 91 0 0.6 1011 0.0000 0.0000
21:32 -1 -2.1 91 225 0.3 0.6 1011.2 0.0000 0.0000
21:42 -1.2 -2.2 92 237 0.3 0.6 1011.3 0.0000 0.0000
21:52 -1.3 -2.3 92 270 0.3 0.6 1011.4 0.0000 0.0000
22:02 -1.4 -2.3 93 270 0.6 0.8 1011.4 0.0000 0.0000
22:12 -1.4 -2.1 94 270 0.6 1.4 1011.5 0.0000 0.0000
22:22 -1 -1.6 95 270 0.6 1.4 1011.8 0.0000 0.0000
22:32 -0.9 -1.5 95 270 0.6 1.4 1011.8 0.0000 0.0000
22:42 -1.1 -1.8 94 254 0.6 1.4 1011.9 0.0000 0.0000
22:53 -1.3 -2 94 253 0.6 1.7 1012.2 0.0000 0.0000
23:02 -1.3 -2 94 270 0.3 0.8 1012.3 0.0000 0.0000
23:12 -1.3 -1.9 95 249 0.6 0.8 1012.6 0.0000 0.0000
23:23 -1.3 -1.9 95 270 0.6 1.4 1012.6 0.0000 0.0000
23:33 -1.3 -1.9 95 270 0.3 0.8 1012.7 0.0000 0.0000
23:43 -1.4 -2 95 0 0.3 1012.7 0.0000 0.0000
23:53 -1.5 -2.1 95 231 0.3 0.3 1012.8 0.0000

DAY STATISTIC

2020-02-19
TEMPERATURE
AVERAGE
2.8
HIGH
5.6
11:59
LOW
-1.5
23:53
PRESSURE
AVERAGE
1006.0
HIGH
1012.8
23:53
LOW
1003.4
00:52
DEWPOINT
AVERAGE
1.0
HIGH
3.5
10:48
LOW
-2.3
21:52
HUMIDITY
AVERAGE
88
HIGH
96
09:17
LOW
77
16:12
WIND SPEED
AVERAGE
1.5
HIGH
3.9
00:52
WIND GUST
AVERAGE
2.9
HIGH
10.0
00:52
WIND DIRECTION
PREVAILING
W
81.2%
N
0.0
NE
0.0
E
0.0
SE
0.7
S
0.7
SW
8.0
W
81.2
NW
5.1
PRECIPITATION
RAIN HOUR
0.0
RAIN DAY
0.0
TEMPERATURE (°C)
LOW
-1.5
HIGH
5.6
AVERAGE
2.8
PRESSURE (hpa)
LOW
1003.4
HIGH
1012.8
AVERAGE
1006.0
DEVICE